createdAt,value
2018-12-30T00:02:38.732Z,35.77
2018-12-30T00:05:19.163Z,35.80
2018-12-30T00:07:59.383Z,35.80
2018-12-30T00:10:40.427Z,36.43
2018-12-30T00:13:21.549Z,34.20
2018-12-30T00:16:03.477Z,37.00
2018-12-30T00:18:47.695Z,35.77
2018-12-30T00:24:17.989Z,36.27
2018-12-30T00:27:02.190Z,34.83
2018-12-30T00:29:43.207Z,34.60
2018-12-30T00:32:27.077Z,35.00
2018-12-30T00:35:07.808Z,34.23
2018-12-30T00:37:49.500Z,35.27
2018-12-30T00:40:30.519Z,32.83
2018-12-30T00:43:11.007Z,33.00
2018-12-30T00:45:52.305Z,34.07
2018-12-30T00:48:34.126Z,37.13
2018-12-30T00:51:17.286Z,32.90
2018-12-30T00:54:03.626Z,32.93
2018-12-30T00:59:33.403Z,34.03
2018-12-30T01:04:58.659Z,33.53
2018-12-30T01:10:22.669Z,35.10
2018-12-30T01:13:04.008Z,33.13
2018-12-30T01:15:45.668Z,34.30
2018-12-30T01:18:26.827Z,33.00
2018-12-30T01:23:51.268Z,32.67
2018-12-30T01:26:32.078Z,35.77
2018-12-30T01:29:12.516Z,33.17
2018-12-30T01:31:53.547Z,33.27
2018-12-30T01:34:35.632Z,30.17
2018-12-30T01:37:18.072Z,32.97
2018-12-30T01:40:02.756Z,34.80
2018-12-30T01:42:49.194Z,31.70
2018-12-30T01:45:26.635Z,35.53
2018-12-30T01:48:09.553Z,34.63
2018-12-30T01:50:50.417Z,35.83
2018-12-30T01:53:31.292Z,34.43
2018-12-30T01:56:12.167Z,30.80
2018-12-30T02:01:40.924Z,32.03
2018-12-30T02:04:23.434Z,32.27
2018-12-30T02:09:50.099Z,31.73
2018-12-30T02:15:18.920Z,30.63
2018-12-30T02:18:01.460Z,31.40
2018-12-30T02:20:42.347Z,31.30
2018-12-30T02:23:24.238Z,32.83
2018-12-30T02:28:50.956Z,32.43
2018-12-30T02:31:31.916Z,32.23
2018-12-30T02:36:56.710Z,31.90
2018-12-30T02:39:37.393Z,31.70
2018-12-30T02:42:24.167Z,31.50
2018-12-30T02:45:04.147Z,29.97
2018-12-30T02:47:44.713Z,28.73
2018-12-30T02:50:26.075Z,29.63
2018-12-30T02:53:07.256Z,27.17
2018-12-30T02:55:47.760Z,26.73
2018-12-30T02:58:28.928Z,31.80
2018-12-30T03:01:14.231Z,27.90
2018-12-30T03:03:54.576Z,31.80
2018-12-30T03:06:35.650Z,29.47
2018-12-30T03:09:16.001Z,27.80
2018-12-30T03:11:57.533Z,26.93
2018-12-30T03:17:21.867Z,25.73
2018-12-30T03:20:06.101Z,26.83
2018-12-30T03:22:45.504Z,26.87
2018-12-30T03:25:25.788Z,28.57
2018-12-30T03:28:08.634Z,25.70
2018-12-30T03:30:49.203Z,28.30
2018-12-30T03:33:29.795Z,27.60
2018-12-30T03:36:10.439Z,26.67
2018-12-30T03:38:51.415Z,27.50
2018-12-30T03:41:35.431Z,24.00
2018-12-30T03:47:03.820Z,26.30
2018-12-30T03:49:45.279Z,25.30
2018-12-30T03:52:26.188Z,25.57
2018-12-30T03:55:07.001Z,22.90
2018-12-30T03:57:47.643Z,22.93
2018-12-30T04:00:29.250Z,22.83
2018-12-30T04:03:10.419Z,24.53
2018-12-30T04:05:50.473Z,23.97
2018-12-30T04:08:34.846Z,23.13
2018-12-30T04:11:18.885Z,23.50
2018-12-30T04:14:00.792Z,25.37
2018-12-30T04:19:33.261Z,22.07
2018-12-30T04:22:16.926Z,21.97
2018-12-30T04:24:57.196Z,23.07
2018-12-30T04:27:37.748Z,23.73
2018-12-30T04:30:18.959Z,21.30
2018-12-30T04:35:46.042Z,22.77
2018-12-30T04:38:28.819Z,22.97
2018-12-30T04:43:53.127Z,22.07
2018-12-30T04:46:34.536Z,20.73
2018-12-30T04:49:15.359Z,21.70
2018-12-30T04:51:55.981Z,24.87
2018-12-30T04:54:36.731Z,22.23
2018-12-30T04:57:18.609Z,21.20
2018-12-30T04:59:59.261Z,24.03
2018-12-30T05:02:39.889Z,22.13
2018-12-30T05:05:21.130Z,21.80
2018-12-30T05:08:02.836Z,19.30
2018-12-30T05:10:43.225Z,22.63
2018-12-30T05:13:24.020Z,19.43
2018-12-30T05:18:54.480Z,21.07
2018-12-30T05:24:20.286Z,19.43
2018-12-30T05:27:00.847Z,18.97
2018-12-30T05:32:27.531Z,17.40
2018-12-30T05:37:56.996Z,18.47
2018-12-30T05:43:28.225Z,15.57
2018-12-30T05:46:08.936Z,16.90
2018-12-30T05:48:50.962Z,17.30
2018-12-30T05:51:32.819Z,16.23
2018-12-30T05:54:13.700Z,15.93
2018-12-30T05:56:54.467Z,15.70
2018-12-30T05:59:36.202Z,16.87
2018-12-30T06:05:00.830Z,17.47
2018-12-30T06:07:42.647Z,16.10
2018-12-30T06:13:12.586Z,17.43
2018-12-30T06:15:53.158Z,13.97
2018-12-30T06:18:34.660Z,15.17
2018-12-30T06:21:17.245Z,14.17
2018-12-30T06:23:58.653Z,14.90
2018-12-30T06:26:39.096Z,14.73
2018-12-30T06:29:20.614Z,14.53
2018-12-30T06:32:01.621Z,16.47
2018-12-30T06:34:42.432Z,15.30
2018-12-30T06:37:23.579Z,14.73
2018-12-30T06:40:11.218Z,15.03
2018-12-30T06:42:49.721Z,13.90
2018-12-30T06:48:19.394Z,14.23
2018-12-30T06:53:48.235Z,14.73
2018-12-30T06:59:17.140Z,15.00
2018-12-30T07:04:43.443Z,18.07
2018-12-30T07:07:24.198Z,15.33
2018-12-30T07:15:37.056Z,16.73
2018-12-30T07:18:18.027Z,17.17
2018-12-30T07:23:43.833Z,16.30
2018-12-30T07:26:25.409Z,17.07
2018-12-30T07:29:06.559Z,15.43
2018-12-30T07:31:48.303Z,15.10
2018-12-30T07:34:29.444Z,15.27
2018-12-30T07:37:10.234Z,14.47
2018-12-30T07:39:51.683Z,14.37
2018-12-30T07:42:32.584Z,14.33
2018-12-30T07:45:13.052Z,15.07
2018-12-30T07:50:25.398Z,14.03
2018-12-30T07:53:13.931Z,14.20
2018-12-30T07:56:03.547Z,14.17
2018-12-30T07:58:51.304Z,15.30
2018-12-30T08:04:48.152Z,13.60
2018-12-30T08:13:44.515Z,16.07
2018-12-30T08:20:11.206Z,13.73
2018-12-30T08:25:37.433Z,15.20
2018-12-30T08:28:25.437Z,15.63
2018-12-30T08:33:45.715Z,15.80
2018-12-30T08:36:33.483Z,16.00
2018-12-30T08:39:21.833Z,14.43
2018-12-30T08:42:09.604Z,14.40
2018-12-30T08:44:57.449Z,14.90
2018-12-30T08:47:45.467Z,13.43
2018-12-30T08:50:33.925Z,12.67
2018-12-30T08:56:50.691Z,14.40
2018-12-30T08:59:38.474Z,14.47
2018-12-30T09:05:40.070Z,17.20
2018-12-30T09:08:28.630Z,12.97
2018-12-30T09:11:37.042Z,17.90
2018-12-30T09:14:25.857Z,13.97
2018-12-30T09:17:15.340Z,12.37
2018-12-30T09:20:04.202Z,14.27
2018-12-30T09:26:12.694Z,13.37
2018-12-30T09:28:50.044Z,14.00
2018-12-30T09:31:37.823Z,15.53
2018-12-30T09:37:34.107Z,14.07
2018-12-30T09:40:16.243Z,14.63
2018-12-30T09:42:57.084Z,15.63
2018-12-30T09:45:38.008Z,15.03
2018-12-30T09:48:19.022Z,11.97
2018-12-30T09:50:59.631Z,16.70
2018-12-30T09:53:45.316Z,15.97
2018-12-30T09:56:26.640Z,14.93
2018-12-30T09:59:07.066Z,13.80
2018-12-30T10:01:49.072Z,12.53
2018-12-30T10:04:32.153Z,12.90
2018-12-30T10:07:14.392Z,12.37
2018-12-30T10:09:56.129Z,15.67
2018-12-30T10:12:36.703Z,12.17
2018-12-30T10:15:19.090Z,12.17
2018-12-30T10:18:00.118Z,13.37
2018-12-30T10:20:40.856Z,11.90
2018-12-30T10:23:22.752Z,13.47
2018-12-30T10:26:04.632Z,17.00
2018-12-30T10:28:45.337Z,13.40
2018-12-30T10:31:26.029Z,15.00
2018-12-30T10:36:55.804Z,13.60
2018-12-30T10:39:38.200Z,15.93
2018-12-30T10:42:18.867Z,15.43
2018-12-30T10:44:59.690Z,13.23
2018-12-30T10:47:41.507Z,15.23
2018-12-30T10:50:23.158Z,12.80
2018-12-30T10:53:05.392Z,16.67
2018-12-30T10:55:45.883Z,14.33
2018-12-30T10:58:26.917Z,12.87
2018-12-30T11:01:07.660Z,17.17
2018-12-30T11:03:48.668Z,17.93
2018-12-30T11:06:29.506Z,16.70
2018-12-30T11:11:54.419Z,15.20
2018-12-30T11:14:36.220Z,18.77
2018-12-30T11:17:18.594Z,14.37
2018-12-30T11:20:00.169Z,16.10
2018-12-30T11:22:42.153Z,16.37
2018-12-30T11:25:24.022Z,19.23
2018-12-30T11:28:07.934Z,16.13
2018-12-30T11:30:49.326Z,15.73
2018-12-30T11:33:33.323Z,15.23
2018-12-30T11:36:14.331Z,16.27
2018-12-30T11:38:56.217Z,15.27
2018-12-30T11:41:37.902Z,16.47
2018-12-30T11:44:19.879Z,13.43
2018-12-30T11:47:02.510Z,15.93
2018-12-30T11:52:31.982Z,14.40
2018-12-30T11:57:57.774Z,18.30
2018-12-30T12:00:38.629Z,20.17
2018-12-30T12:03:19.656Z,18.30
2018-12-30T12:08:52.032Z,15.47
2018-12-30T12:11:33.651Z,16.93
2018-12-30T12:14:15.454Z,16.73
2018-12-30T12:16:58.903Z,17.47
2018-12-30T12:22:24.594Z,17.43
2018-12-30T12:25:07.706Z,13.20
2018-12-30T12:27:50.262Z,12.50
2018-12-30T12:30:32.162Z,14.60
2018-12-30T12:33:12.477Z,15.77
2018-12-30T12:35:53.596Z,14.97
2018-12-30T12:38:34.582Z,13.43
2018-12-30T12:41:16.844Z,13.13
2018-12-30T12:44:00.900Z,12.10
2018-12-30T12:46:45.152Z,12.53
2018-12-30T12:49:27.424Z,13.03
2018-12-30T12:52:08.266Z,14.70
2018-12-30T12:54:49.973Z,13.97
2018-12-30T12:57:31.746Z,13.83
2018-12-30T13:00:13.268Z,14.33
2018-12-30T13:02:53.870Z,13.47
2018-12-30T13:05:34.708Z,14.90
2018-12-30T13:08:16.227Z,13.13
2018-12-30T13:10:57.284Z,14.30
2018-12-30T13:13:37.651Z,14.20
2018-12-30T13:16:19.070Z,14.37
2018-12-30T13:19:02.320Z,12.53
2018-12-30T13:21:42.594Z,12.87
2018-12-30T13:24:23.218Z,13.10
2018-12-30T13:27:05.211Z,11.57
2018-12-30T13:29:45.735Z,14.73
2018-12-30T13:32:26.747Z,11.77
2018-12-30T13:35:07.338Z,13.07
2018-12-30T13:37:51.404Z,15.03
2018-12-30T13:40:32.727Z,16.80
2018-12-30T13:43:14.151Z,15.93
2018-12-30T13:45:54.935Z,15.83
2018-12-30T13:48:35.925Z,16.70
2018-12-30T13:51:17.685Z,14.87
2018-12-30T13:56:44.495Z,14.57
2018-12-30T13:59:25.404Z,13.43
2018-12-30T14:02:06.727Z,12.23
2018-12-30T14:04:48.504Z,12.93
2018-12-30T14:10:11.448Z,12.83
2018-12-30T14:12:52.558Z,12.70
2018-12-30T14:18:15.897Z,12.00
2018-12-30T14:20:56.388Z,11.70
2018-12-30T14:23:37.633Z,15.43
2018-12-30T14:26:18.245Z,13.17
2018-12-30T14:29:01.456Z,13.13
2018-12-30T14:31:42.327Z,12.90
2018-12-30T14:34:23.340Z,13.83
2018-12-30T14:37:04.492Z,15.03
2018-12-30T14:39:45.320Z,14.53
2018-12-30T14:45:06.015Z,14.20
2018-12-30T14:47:46.907Z,13.70
2018-12-30T14:50:29.532Z,13.27
2018-12-30T14:53:19.134Z,13.37
2018-12-30T14:55:54.975Z,15.43
2018-12-30T14:58:38.845Z,14.47
2018-12-30T15:01:19.258Z,13.43
2018-12-30T15:04:00.052Z,13.40
2018-12-30T15:06:41.506Z,15.77
2018-12-30T15:09:23.506Z,14.60
2018-12-30T15:14:46.734Z,15.50
2018-12-30T15:17:28.476Z,14.33
2018-12-30T15:20:09.888Z,12.47
2018-12-30T15:22:50.355Z,14.13
2018-12-30T15:25:31.883Z,15.00
2018-12-30T15:28:12.164Z,12.17
2018-12-30T15:30:54.036Z,13.83
2018-12-30T15:36:22.380Z,21.00
2018-12-30T15:39:02.647Z,52.87
2018-12-30T15:41:43.712Z,48.30
2018-12-30T15:44:25.190Z,82.77
2018-12-30T15:47:06.124Z,102.20
2018-12-30T15:49:47.184Z,66.93
2018-12-30T15:52:28.141Z,36.40
2018-12-30T15:55:09.436Z,30.90
2018-12-30T15:57:50.436Z,43.53
2018-12-30T16:00:31.395Z,45.27
2018-12-30T16:05:57.829Z,22.43
2018-12-30T16:08:39.329Z,20.00
2018-12-30T16:11:20.792Z,17.30
2018-12-30T16:14:01.619Z,18.10
2018-12-30T16:16:43.139Z,19.00
2018-12-30T16:22:12.703Z,19.83
2018-12-30T16:24:54.814Z,18.90
2018-12-30T16:27:35.171Z,17.57
2018-12-30T16:30:16.254Z,14.87
2018-12-30T16:32:57.221Z,16.90
2018-12-30T16:35:37.680Z,19.53
2018-12-30T16:38:18.076Z,18.67
2018-12-30T16:40:58.564Z,20.33
2018-12-30T16:43:40.104Z,14.67
2018-12-30T16:46:20.819Z,14.30
2018-12-30T16:49:01.494Z,14.23
2018-12-30T16:51:44.912Z,15.03
2018-12-30T16:54:25.418Z,16.83
2018-12-30T16:57:06.723Z,15.47
2018-12-30T17:02:30.099Z,17.70
2018-12-30T17:08:00.083Z,15.10
2018-12-30T17:10:40.372Z,13.87
2018-12-30T17:13:23.947Z,16.87
2018-12-30T17:16:06.039Z,14.17
2018-12-30T17:18:46.415Z,14.63
2018-12-30T17:21:27.918Z,14.03
2018-12-30T17:29:44.839Z,29.50
2018-12-30T17:32:29.809Z,19.73
2018-12-30T17:35:10.133Z,18.00
2018-12-30T17:37:52.966Z,16.97
2018-12-30T17:43:18.306Z,17.23
2018-12-30T17:48:49.599Z,17.97
2018-12-30T17:51:30.028Z,20.37
2018-12-30T17:54:15.243Z,17.57
2018-12-30T17:59:41.873Z,24.23
2018-12-30T18:02:23.399Z,22.20
2018-12-30T18:07:47.767Z,24.27
2018-12-30T18:10:29.043Z,21.50
2018-12-30T18:13:12.262Z,18.17
2018-12-30T18:15:53.023Z,20.83
2018-12-30T18:18:33.875Z,19.57
2018-12-30T18:21:14.185Z,16.50
2018-12-30T18:23:57.319Z,16.57
2018-12-30T18:26:38.211Z,17.27
2018-12-30T18:29:21.222Z,19.50
2018-12-30T18:32:02.879Z,16.90
2018-12-30T18:34:42.738Z,16.00
2018-12-30T18:37:26.254Z,33.27
2018-12-30T18:40:06.471Z,19.97
2018-12-30T18:42:47.860Z,31.27
2018-12-30T18:48:31.536Z,20.47
2018-12-30T18:51:12.088Z,16.33
2018-12-30T18:53:52.739Z,17.00
2018-12-30T18:56:32.490Z,16.83
2018-12-30T18:59:13.540Z,18.10
2018-12-30T19:01:54.317Z,16.43
2018-12-30T19:04:35.973Z,17.13
2018-12-30T19:07:17.018Z,16.00
2018-12-30T19:09:57.995Z,18.77
2018-12-30T19:12:38.815Z,17.40
2018-12-30T19:15:19.562Z,18.03
2018-12-30T19:18:00.132Z,25.87
2018-12-30T19:20:41.028Z,23.03
2018-12-30T19:23:22.929Z,19.67
2018-12-30T19:26:03.588Z,18.23
2018-12-30T19:28:45.155Z,19.17
2018-12-30T19:31:25.585Z,18.13
2018-12-30T19:34:06.097Z,18.13
2018-12-30T19:36:46.714Z,17.93
2018-12-30T19:39:27.747Z,18.03
2018-12-30T19:44:53.797Z,15.30
2018-12-30T19:47:34.715Z,14.23
2018-12-30T19:50:16.654Z,20.03
2018-12-30T19:52:58.379Z,19.03
2018-12-30T19:55:41.295Z,15.90
2018-12-30T19:58:21.763Z,14.53
2018-12-30T20:01:02.351Z,14.63
2018-12-30T20:03:44.411Z,20.00
2018-12-30T20:06:25.107Z,15.97
2018-12-30T20:09:05.779Z,14.33
2018-12-30T20:11:46.834Z,15.60
2018-12-30T20:14:27.075Z,16.37
2018-12-30T20:17:07.956Z,15.43
2018-12-30T20:19:49.483Z,14.83
2018-12-30T20:25:15.312Z,18.13
2018-12-30T20:27:56.776Z,14.37
2018-12-30T20:30:38.055Z,18.60
2018-12-30T20:33:18.676Z,18.17
2018-12-30T20:35:59.538Z,14.90
2018-12-30T20:38:40.956Z,17.30
2018-12-30T20:41:22.876Z,17.00
2018-12-30T20:44:03.075Z,17.80
2018-12-30T20:46:45.943Z,16.23
2018-12-30T20:49:26.819Z,14.73
2018-12-30T20:52:07.701Z,14.73
2018-12-30T20:54:48.571Z,15.70
2018-12-30T20:57:29.908Z,15.33
2018-12-30T21:00:15.462Z,17.43
2018-12-30T21:02:56.762Z,17.70
2018-12-30T21:05:38.133Z,15.97
2018-12-30T21:08:21.156Z,18.00
2018-12-30T21:11:03.958Z,19.53
2018-12-30T21:13:46.132Z,17.17
2018-12-30T21:16:26.735Z,15.43
2018-12-30T21:19:07.496Z,17.47
2018-12-30T21:21:48.439Z,17.90
2018-12-30T21:24:30.231Z,17.83
2018-12-30T21:27:11.831Z,17.20
2018-12-30T21:29:52.883Z,15.57
2018-12-30T21:32:33.775Z,17.57
2018-12-30T21:35:14.520Z,16.17
2018-12-30T21:37:55.888Z,16.57
2018-12-30T21:40:37.686Z,18.83
2018-12-30T21:43:19.375Z,17.43
2018-12-30T21:46:01.754Z,16.33
2018-12-30T21:51:30.517Z,15.27
2018-12-30T21:54:12.351Z,16.90
2018-12-30T21:56:54.887Z,16.33
2018-12-30T21:59:35.991Z,15.80
2018-12-30T22:02:17.004Z,15.33
2018-12-30T22:04:58.879Z,17.13
2018-12-30T22:07:39.521Z,16.67
2018-12-30T22:10:21.110Z,16.40
2018-12-30T22:13:03.035Z,16.73
2018-12-30T22:15:46.956Z,17.30
2018-12-30T22:18:28.142Z,16.60
2018-12-30T22:21:08.647Z,19.73
2018-12-30T22:23:48.899Z,17.40
2018-12-30T22:26:30.196Z,17.10
2018-12-30T22:29:11.566Z,19.70
2018-12-30T22:31:52.704Z,19.30
2018-12-30T22:37:22.444Z,17.47
2018-12-30T22:40:03.702Z,17.53
2018-12-30T22:42:48.112Z,15.53
2018-12-30T22:45:27.916Z,19.03
2018-12-30T22:50:55.412Z,17.70
2018-12-30T22:53:38.167Z,15.70
2018-12-30T22:56:19.065Z,15.20
2018-12-30T22:59:01.432Z,18.00
2018-12-30T23:01:45.138Z,17.47
2018-12-30T23:04:25.714Z,16.73
2018-12-30T23:07:06.227Z,16.50
2018-12-30T23:09:47.132Z,17.57
2018-12-30T23:12:28.870Z,14.93
2018-12-30T23:15:10.764Z,18.83
2018-12-30T23:17:51.905Z,14.97
2018-12-30T23:23:16.854Z,15.73
2018-12-30T23:28:45.185Z,15.70
2018-12-30T23:31:29.544Z,19.30
2018-12-30T23:36:55.733Z,17.83
2018-12-30T23:39:36.518Z,17.43
2018-12-30T23:42:17.128Z,18.40
2018-12-30T23:44:58.254Z,18.37
2018-12-30T23:47:39.914Z,19.07
2018-12-30T23:50:21.402Z,17.83
2018-12-30T23:55:49.027Z,17.63
